sensor_id;sensor_type;location;lat;lon;timestamp;P1;durP1;ratioP1;P2;durP2;ratioP2
3054;SDS011;1537;52.018;8.542;2024-01-07T00:03:03;17.70;;;11.73;;
3054;SDS011;1537;52.018;8.542;2024-01-07T00:06:29;20.47;;;13.60;;
3054;SDS011;1537;52.018;8.542;2024-01-07T00:09:52;16.83;;;12.80;;
3054;SDS011;1537;52.018;8.542;2024-01-07T00:13:16;15.43;;;12.43;;
3054;SDS011;1537;52.018;8.542;2024-01-07T00:16:41;16.53;;;12.30;;
3054;SDS011;1537;52.018;8.542;2024-01-07T00:20:06;19.00;;;12.80;;
3054;SDS011;1537;52.018;8.542;2024-01-07T00:23:32;18.47;;;14.57;;
3054;SDS011;1537;52.018;8.542;2024-01-07T00:26:55;16.93;;;12.27;;
3054;SDS011;1537;52.018;8.542;2024-01-07T00:30:21;14.27;;;11.17;;
3054;SDS011;1537;52.018;8.542;2024-01-07T00:33:45;20.00;;;14.03;;
3054;SDS011;1537;52.018;8.542;2024-01-07T00:37:09;18.90;;;13.93;;
3054;SDS011;1537;52.018;8.542;2024-01-07T00:40:35;15.83;;;10.13;;
3054;SDS011;1537;52.018;8.542;2024-01-07T00:44:00;17.27;;;11.97;;
3054;SDS011;1537;52.018;8.542;2024-01-07T00:47:25;18.10;;;11.93;;
3054;SDS011;1537;52.018;8.542;2024-01-07T00:50:49;17.87;;;13.80;;
3054;SDS011;1537;52.018;8.542;2024-01-07T00:54:13;17.23;;;11.80;;
3054;SDS011;1537;52.018;8.542;2024-01-07T00:57:39;14.77;;;11.07;;
3054;SDS011;1537;52.018;8.542;2024-01-07T01:01:03;19.17;;;12.80;;
3054;SDS011;1537;52.018;8.542;2024-01-07T01:04:27;21.30;;;14.10;;
3054;SDS011;1537;52.018;8.542;2024-01-07T01:07:51;19.23;;;13.73;;
3054;SDS011;1537;52.018;8.542;2024-01-07T01:11:15;17.53;;;12.30;;
3054;SDS011;1537;52.018;8.542;2024-01-07T01:14:41;19.40;;;13.97;;
3054;SDS011;1537;52.018;8.542;2024-01-07T01:18:05;17.20;;;12.37;;
3054;SDS011;1537;52.018;8.542;2024-01-07T01:21:29;19.47;;;13.80;;
3054;SDS011;1537;52.018;8.542;2024-01-07T01:24:53;15.97;;;10.10;;
3054;SDS011;1537;52.018;8.542;2024-01-07T01:28:18;18.53;;;11.10;;
3054;SDS011;1537;52.018;8.542;2024-01-07T01:31:44;12.30;;;7.90;;
3054;SDS011;1537;52.018;8.542;2024-01-07T01:35:08;12.90;;;8.43;;
3054;SDS011;1537;52.018;8.542;2024-01-07T01:38:32;12.83;;;9.67;;
3054;SDS011;1537;52.018;8.542;2024-01-07T01:41:56;14.13;;;9.60;;
3054;SDS011;1537;52.018;8.542;2024-01-07T01:45:20;15.30;;;11.93;;
3054;SDS011;1537;52.018;8.542;2024-01-07T01:48:46;16.67;;;9.50;;
3054;SDS011;1537;52.018;8.542;2024-01-07T01:52:10;15.70;;;11.03;;
3054;SDS011;1537;52.018;8.542;2024-01-07T01:55:36;15.40;;;9.57;;
3054;SDS011;1537;52.018;8.542;2024-01-07T01:59:00;17.33;;;8.53;;
3054;SDS011;1537;52.018;8.542;2024-01-07T02:02:24;12.00;;;9.00;;
3054;SDS011;1537;52.018;8.542;2024-01-07T02:05:50;15.17;;;9.53;;
3054;SDS011;1537;52.018;8.542;2024-01-07T02:09:13;14.77;;;10.37;;
3054;SDS011;1537;52.018;8.542;2024-01-07T02:12:38;14.10;;;9.10;;
3054;SDS011;1537;52.018;8.542;2024-01-07T02:16:04;12.43;;;7.60;;
3054;SDS011;1537;52.018;8.542;2024-01-07T02:19:37;13.93;;;9.50;;
3054;SDS011;1537;52.018;8.542;2024-01-07T02:23:03;12.20;;;7.10;;
3054;SDS011;1537;52.018;8.542;2024-01-07T02:26:31;16.70;;;10.03;;
3054;SDS011;1537;52.018;8.542;2024-01-07T02:29:54;11.27;;;7.60;;
3054;SDS011;1537;52.018;8.542;2024-01-07T02:33:19;14.63;;;8.93;;
3054;SDS011;1537;52.018;8.542;2024-01-07T02:36:43;15.70;;;10.33;;
3054;SDS011;1537;52.018;8.542;2024-01-07T02:40:08;14.07;;;9.73;;
3054;SDS011;1537;52.018;8.542;2024-01-07T02:43:34;15.73;;;10.53;;
3054;SDS011;1537;52.018;8.542;2024-01-07T02:46:57;14.20;;;9.40;;
3054;SDS011;1537;52.018;8.542;2024-01-07T02:50:22;15.93;;;9.23;;
3054;SDS011;1537;52.018;8.542;2024-01-07T02:53:46;17.63;;;10.47;;
3054;SDS011;1537;52.018;8.542;2024-01-07T02:57:10;14.20;;;8.97;;
3054;SDS011;1537;52.018;8.542;2024-01-07T03:00:38;14.10;;;10.23;;
3054;SDS011;1537;52.018;8.542;2024-01-07T03:04:03;14.90;;;9.50;;
3054;SDS011;1537;52.018;8.542;2024-01-07T03:07:28;14.20;;;8.53;;
3054;SDS011;1537;52.018;8.542;2024-01-07T03:10:51;17.70;;;11.40;;
3054;SDS011;1537;52.018;8.542;2024-01-07T03:14:16;14.60;;;10.77;;
3054;SDS011;1537;52.018;8.542;2024-01-07T03:17:43;15.70;;;10.57;;
3054;SDS011;1537;52.018;8.542;2024-01-07T03:21:15;15.50;;;11.57;;
3054;SDS011;1537;52.018;8.542;2024-01-07T03:24:41;14.33;;;10.17;;
3054;SDS011;1537;52.018;8.542;2024-01-07T03:28:06;17.07;;;10.07;;
3054;SDS011;1537;52.018;8.542;2024-01-07T03:31:30;14.57;;;10.30;;
3054;SDS011;1537;52.018;8.542;2024-01-07T03:34:56;17.90;;;11.47;;
3054;SDS011;1537;52.018;8.542;2024-01-07T03:38:20;14.80;;;9.40;;
3054;SDS011;1537;52.018;8.542;2024-01-07T03:41:45;13.90;;;8.77;;
3054;SDS011;1537;52.018;8.542;2024-01-07T03:45:17;14.73;;;9.90;;
3054;SDS011;1537;52.018;8.542;2024-01-07T03:48:41;14.03;;;10.17;;
3054;SDS011;1537;52.018;8.542;2024-01-07T03:52:11;17.23;;;11.93;;
3054;SDS011;1537;52.018;8.542;2024-01-07T03:55:35;14.93;;;9.30;;
3054;SDS011;1537;52.018;8.542;2024-01-07T03:59:00;12.57;;;7.67;;
3054;SDS011;1537;52.018;8.542;2024-01-07T04:02:26;14.83;;;9.60;;
3054;SDS011;1537;52.018;8.542;2024-01-07T04:05:51;11.30;;;8.50;;
3054;SDS011;1537;52.018;8.542;2024-01-07T04:09:19;14.47;;;9.30;;
3054;SDS011;1537;52.018;8.542;2024-01-07T04:12:43;13.83;;;8.53;;
3054;SDS011;1537;52.018;8.542;2024-01-07T04:16:15;13.40;;;8.37;;
3054;SDS011;1537;52.018;8.542;2024-01-07T04:19:40;14.73;;;7.97;;
3054;SDS011;1537;52.018;8.542;2024-01-07T04:23:04;13.50;;;9.33;;
3054;SDS011;1537;52.018;8.542;2024-01-07T04:26:29;14.23;;;9.53;;
3054;SDS011;1537;52.018;8.542;2024-01-07T04:29:54;11.90;;;8.20;;
3054;SDS011;1537;52.018;8.542;2024-01-07T04:33:20;13.67;;;8.17;;
3054;SDS011;1537;52.018;8.542;2024-01-07T04:36:44;11.40;;;8.90;;
3054;SDS011;1537;52.018;8.542;2024-01-07T04:40:10;15.20;;;10.97;;
3054;SDS011;1537;52.018;8.542;2024-01-07T04:43:37;13.53;;;9.03;;
3054;SDS011;1537;52.018;8.542;2024-01-07T04:47:01;12.37;;;7.47;;
3054;SDS011;1537;52.018;8.542;2024-01-07T04:50:25;13.53;;;8.30;;
3054;SDS011;1537;52.018;8.542;2024-01-07T04:53:49;12.73;;;7.40;;
3054;SDS011;1537;52.018;8.542;2024-01-07T04:57:13;16.90;;;9.90;;
3054;SDS011;1537;52.018;8.542;2024-01-07T05:00:38;14.20;;;10.10;;
3054;SDS011;1537;52.018;8.542;2024-01-07T05:04:02;15.30;;;9.70;;
3054;SDS011;1537;52.018;8.542;2024-01-07T05:07:27;14.67;;;10.43;;
3054;SDS011;1537;52.018;8.542;2024-01-07T05:10:51;13.90;;;10.37;;
3054;SDS011;1537;52.018;8.542;2024-01-07T05:14:15;16.40;;;10.00;;
3054;SDS011;1537;52.018;8.542;2024-01-07T05:17:40;18.20;;;10.83;;
3054;SDS011;1537;52.018;8.542;2024-01-07T05:21:05;16.50;;;10.90;;
3054;SDS011;1537;52.018;8.542;2024-01-07T05:24:30;13.13;;;7.90;;
3054;SDS011;1537;52.018;8.542;2024-01-07T05:27:56;16.43;;;10.20;;
3054;SDS011;1537;52.018;8.542;2024-01-07T05:31:19;11.73;;;8.43;;
3054;SDS011;1537;52.018;8.542;2024-01-07T05:34:46;12.30;;;9.30;;
3054;SDS011;1537;52.018;8.542;2024-01-07T05:38:10;13.73;;;8.17;;
3054;SDS011;1537;52.018;8.542;2024-01-07T05:41:36;11.93;;;8.17;;
3054;SDS011;1537;52.018;8.542;2024-01-07T05:45:00;13.37;;;6.50;;
3054;SDS011;1537;52.018;8.542;2024-01-07T05:48:25;10.83;;;8.20;;
3054;SDS011;1537;52.018;8.542;2024-01-07T05:51:50;13.10;;;8.63;;
3054;SDS011;1537;52.018;8.542;2024-01-07T05:55:14;14.53;;;8.50;;
3054;SDS011;1537;52.018;8.542;2024-01-07T05:58:38;10.80;;;7.77;;
3054;SDS011;1537;52.018;8.542;2024-01-07T06:02:02;11.30;;;7.33;;
3054;SDS011;1537;52.018;8.542;2024-01-07T06:05:27;11.90;;;7.90;;
3054;SDS011;1537;52.018;8.542;2024-01-07T06:08:52;11.10;;;6.50;;
3054;SDS011;1537;52.018;8.542;2024-01-07T06:12:16;10.70;;;7.00;;
3054;SDS011;1537;52.018;8.542;2024-01-07T06:15:40;10.13;;;7.43;;
3054;SDS011;1537;52.018;8.542;2024-01-07T06:19:04;10.10;;;7.37;;
3054;SDS011;1537;52.018;8.542;2024-01-07T06:22:28;11.83;;;7.33;;
3054;SDS011;1537;52.018;8.542;2024-01-07T06:25:53;10.53;;;8.00;;
3054;SDS011;1537;52.018;8.542;2024-01-07T06:29:17;11.57;;;7.20;;
3054;SDS011;1537;52.018;8.542;2024-01-07T06:32:41;9.93;;;5.93;;
3054;SDS011;1537;52.018;8.542;2024-01-07T06:36:05;11.17;;;7.67;;
3054;SDS011;1537;52.018;8.542;2024-01-07T06:39:30;11.10;;;5.70;;
3054;SDS011;1537;52.018;8.542;2024-01-07T06:42:56;9.47;;;7.17;;
3054;SDS011;1537;52.018;8.542;2024-01-07T06:46:20;9.97;;;7.53;;
3054;SDS011;1537;52.018;8.542;2024-01-07T06:49:44;9.60;;;6.47;;
3054;SDS011;1537;52.018;8.542;2024-01-07T06:53:08;8.77;;;5.80;;
3054;SDS011;1537;52.018;8.542;2024-01-07T06:56:32;9.30;;;6.57;;
3054;SDS011;1537;52.018;8.542;2024-01-07T06:59:57;9.23;;;6.03;;
3054;SDS011;1537;52.018;8.542;2024-01-07T07:03:22;8.03;;;5.07;;
3054;SDS011;1537;52.018;8.542;2024-01-07T07:06:47;9.23;;;5.13;;
3054;SDS011;1537;52.018;8.542;2024-01-07T07:10:11;8.10;;;5.27;;
3054;SDS011;1537;52.018;8.542;2024-01-07T07:13:39;10.27;;;5.60;;
3054;SDS011;1537;52.018;8.542;2024-01-07T07:17:08;8.17;;;4.83;;
3054;SDS011;1537;52.018;8.542;2024-01-07T07:20:32;8.07;;;4.80;;
3054;SDS011;1537;52.018;8.542;2024-01-07T07:23:56;5.97;;;3.80;;
3054;SDS011;1537;52.018;8.542;2024-01-07T07:27:20;9.13;;;5.73;;
3054;SDS011;1537;52.018;8.542;2024-01-07T07:30:44;7.23;;;4.57;;
3054;SDS011;1537;52.018;8.542;2024-01-07T07:34:15;7.87;;;4.60;;
3054;SDS011;1537;52.018;8.542;2024-01-07T07:37:45;6.70;;;3.63;;
3054;SDS011;1537;52.018;8.542;2024-01-07T07:41:12;7.60;;;5.50;;
3054;SDS011;1537;52.018;8.542;2024-01-07T07:44:36;6.77;;;4.43;;
3054;SDS011;1537;52.018;8.542;2024-01-07T07:48:01;6.73;;;4.30;;
3054;SDS011;1537;52.018;8.542;2024-01-07T07:51:26;9.00;;;4.50;;
3054;SDS011;1537;52.018;8.542;2024-01-07T07:54:50;8.40;;;4.77;;
3054;SDS011;1537;52.018;8.542;2024-01-07T07:58:13;9.33;;;4.57;;
3054;SDS011;1537;52.018;8.542;2024-01-07T08:01:37;7.17;;;5.10;;
3054;SDS011;1537;52.018;8.542;2024-01-07T08:05:01;9.73;;;5.43;;
3054;SDS011;1537;52.018;8.542;2024-01-07T08:08:27;7.53;;;5.47;;
3054;SDS011;1537;52.018;8.542;2024-01-07T08:11:50;6.70;;;4.30;;
3054;SDS011;1537;52.018;8.542;2024-01-07T08:15:14;8.23;;;4.43;;
3054;SDS011;1537;52.018;8.542;2024-01-07T08:18:39;9.30;;;5.60;;
3054;SDS011;1537;52.018;8.542;2024-01-07T08:22:03;8.77;;;4.87;;
3054;SDS011;1537;52.018;8.542;2024-01-07T08:25:28;7.00;;;4.50;;
3054;SDS011;1537;52.018;8.542;2024-01-07T08:28:52;7.43;;;4.47;;
3054;SDS011;1537;52.018;8.542;2024-01-07T08:32:16;6.73;;;4.30;;
3054;SDS011;1537;52.018;8.542;2024-01-07T08:35:41;7.93;;;4.53;;
3054;SDS011;1537;52.018;8.542;2024-01-07T08:39:05;8.37;;;4.80;;
3054;SDS011;1537;52.018;8.542;2024-01-07T08:42:31;6.20;;;3.83;;
3054;SDS011;1537;52.018;8.542;2024-01-07T08:45:54;7.93;;;3.37;;
3054;SDS011;1537;52.018;8.542;2024-01-07T08:49:18;6.80;;;4.50;;
3054;SDS011;1537;52.018;8.542;2024-01-07T08:52:42;5.20;;;2.97;;
3054;SDS011;1537;52.018;8.542;2024-01-07T08:56:08;5.90;;;3.47;;
3054;SDS011;1537;52.018;8.542;2024-01-07T08:59:35;7.20;;;3.90;;
3054;SDS011;1537;52.018;8.542;2024-01-07T09:02:58;7.30;;;3.80;;
3054;SDS011;1537;52.018;8.542;2024-01-07T09:06:22;6.37;;;3.00;;
3054;SDS011;1537;52.018;8.542;2024-01-07T09:09:46;7.93;;;4.83;;
3054;SDS011;1537;52.018;8.542;2024-01-07T09:13:10;6.10;;;4.43;;
3054;SDS011;1537;52.018;8.542;2024-01-07T09:16:35;8.07;;;4.50;;
3054;SDS011;1537;52.018;8.542;2024-01-07T09:19:58;9.83;;;4.10;;
3054;SDS011;1537;52.018;8.542;2024-01-07T09:23:24;5.83;;;3.80;;
3054;SDS011;1537;52.018;8.542;2024-01-07T09:26:47;7.53;;;4.37;;
3054;SDS011;1537;52.018;8.542;2024-01-07T09:30:11;6.40;;;3.90;;
3054;SDS011;1537;52.018;8.542;2024-01-07T09:33:38;7.37;;;5.10;;
3054;SDS011;1537;52.018;8.542;2024-01-07T09:37:02;6.73;;;4.50;;
3054;SDS011;1537;52.018;8.542;2024-01-07T09:40:26;6.47;;;4.13;;
3054;SDS011;1537;52.018;8.542;2024-01-07T09:43:50;6.53;;;4.27;;
3054;SDS011;1537;52.018;8.542;2024-01-07T09:47:15;6.20;;;4.40;;
3054;SDS011;1537;52.018;8.542;2024-01-07T09:50:40;6.07;;;4.30;;
3054;SDS011;1537;52.018;8.542;2024-01-07T09:54:08;5.83;;;4.10;;
3054;SDS011;1537;52.018;8.542;2024-01-07T09:57:36;6.60;;;3.50;;
3054;SDS011;1537;52.018;8.542;2024-01-07T10:01:03;6.83;;;4.60;;
3054;SDS011;1537;52.018;8.542;2024-01-07T10:04:28;6.20;;;3.70;;
3054;SDS011;1537;52.018;8.542;2024-01-07T10:07:54;5.20;;;3.57;;
3054;SDS011;1537;52.018;8.542;2024-01-07T10:11:20;6.37;;;4.43;;
3054;SDS011;1537;52.018;8.542;2024-01-07T10:14:45;5.67;;;3.80;;
3054;SDS011;1537;52.018;8.542;2024-01-07T10:18:08;5.03;;;3.03;;
3054;SDS011;1537;52.018;8.542;2024-01-07T10:21:32;6.00;;;4.10;;
3054;SDS011;1537;52.018;8.542;2024-01-07T10:24:57;5.83;;;3.67;;
3054;SDS011;1537;52.018;8.542;2024-01-07T10:28:21;6.30;;;4.47;;
3054;SDS011;1537;52.018;8.542;2024-01-07T10:31:45;5.07;;;3.27;;
3054;SDS011;1537;52.018;8.542;2024-01-07T10:35:11;5.40;;;3.60;;
3054;SDS011;1537;52.018;8.542;2024-01-07T10:38:37;6.30;;;4.10;;
3054;SDS011;1537;52.018;8.542;2024-01-07T10:42:07;6.77;;;3.50;;
3054;SDS011;1537;52.018;8.542;2024-01-07T10:45:32;9.10;;;4.50;;
3054;SDS011;1537;52.018;8.542;2024-01-07T10:48:59;5.20;;;3.97;;
3054;SDS011;1537;52.018;8.542;2024-01-07T10:52:28;6.20;;;4.20;;
3054;SDS011;1537;52.018;8.542;2024-01-07T10:55:52;6.03;;;3.77;;
3054;SDS011;1537;52.018;8.542;2024-01-07T10:59:24;5.23;;;3.60;;
3054;SDS011;1537;52.018;8.542;2024-01-07T11:02:51;6.00;;;3.80;;
3054;SDS011;1537;52.018;8.542;2024-01-07T11:06:22;6.60;;;4.10;;
3054;SDS011;1537;52.018;8.542;2024-01-07T11:09:54;6.50;;;3.97;;
3054;SDS011;1537;52.018;8.542;2024-01-07T11:13:32;6.00;;;4.10;;
3054;SDS011;1537;52.018;8.542;2024-01-07T11:16:58;7.37;;;4.97;;
3054;SDS011;1537;52.018;8.542;2024-01-07T11:20:22;6.77;;;4.37;;
3054;SDS011;1537;52.018;8.542;2024-01-07T11:23:48;5.40;;;3.83;;
3054;SDS011;1537;52.018;8.542;2024-01-07T11:27:12;7.87;;;5.20;;
3054;SDS011;1537;52.018;8.542;2024-01-07T11:30:37;6.27;;;4.70;;
3054;SDS011;1537;52.018;8.542;2024-01-07T11:34:05;6.63;;;4.53;;
3054;SDS011;1537;52.018;8.542;2024-01-07T11:37:29;6.60;;;3.87;;
3054;SDS011;1537;52.018;8.542;2024-01-07T11:40:53;10.00;;;4.63;;
3054;SDS011;1537;52.018;8.542;2024-01-07T11:44:19;9.17;;;5.50;;
3054;SDS011;1537;52.018;8.542;2024-01-07T11:47:42;10.57;;;5.07;;
3054;SDS011;1537;52.018;8.542;2024-01-07T11:51:07;8.67;;;5.73;;
3054;SDS011;1537;52.018;8.542;2024-01-07T11:54:31;7.27;;;5.40;;
3054;SDS011;1537;52.018;8.542;2024-01-07T11:57:55;7.60;;;4.60;;
3054;SDS011;1537;52.018;8.542;2024-01-07T12:01:19;7.37;;;4.27;;
3054;SDS011;1537;52.018;8.542;2024-01-07T12:04:43;6.93;;;4.63;;
3054;SDS011;1537;52.018;8.542;2024-01-07T12:08:08;9.87;;;5.33;;
3054;SDS011;1537;52.018;8.542;2024-01-07T12:11:31;6.47;;;4.43;;
3054;SDS011;1537;52.018;8.542;2024-01-07T12:14:55;6.57;;;4.27;;
3054;SDS011;1537;52.018;8.542;2024-01-07T12:18:20;9.30;;;5.10;;
3054;SDS011;1537;52.018;8.542;2024-01-07T12:21:44;6.87;;;4.20;;
3054;SDS011;1537;52.018;8.542;2024-01-07T12:25:13;7.90;;;4.73;;
3054;SDS011;1537;52.018;8.542;2024-01-07T12:28:45;6.83;;;4.80;;
3054;SDS011;1537;52.018;8.542;2024-01-07T12:32:15;8.03;;;5.10;;
3054;SDS011;1537;52.018;8.542;2024-01-07T12:35:39;5.90;;;4.03;;
3054;SDS011;1537;52.018;8.542;2024-01-07T12:39:03;6.30;;;3.80;;
3054;SDS011;1537;52.018;8.542;2024-01-07T12:42:28;7.80;;;4.50;;
3054;SDS011;1537;52.018;8.542;2024-01-07T12:45:52;6.83;;;5.00;;
3054;SDS011;1537;52.018;8.542;2024-01-07T12:49:17;5.53;;;4.10;;
3054;SDS011;1537;52.018;8.542;2024-01-07T12:52:41;7.67;;;5.00;;
3054;SDS011;1537;52.018;8.542;2024-01-07T12:56:05;6.40;;;4.73;;
3054;SDS011;1537;52.018;8.542;2024-01-07T12:59:30;8.20;;;4.50;;
3054;SDS011;1537;52.018;8.542;2024-01-07T13:02:54;9.40;;;4.70;;
3054;SDS011;1537;52.018;8.542;2024-01-07T13:06:22;6.23;;;4.20;;
3054;SDS011;1537;52.018;8.542;2024-01-07T13:09:46;6.10;;;4.70;;
3054;SDS011;1537;52.018;8.542;2024-01-07T13:13:10;6.57;;;4.73;;
3054;SDS011;1537;52.018;8.542;2024-01-07T13:16:38;6.43;;;3.70;;
3054;SDS011;1537;52.018;8.542;2024-01-07T13:20:02;7.10;;;4.00;;
3054;SDS011;1537;52.018;8.542;2024-01-07T13:23:28;6.23;;;4.70;;
3054;SDS011;1537;52.018;8.542;2024-01-07T13:26:55;9.97;;;4.27;;
3054;SDS011;1537;52.018;8.542;2024-01-07T13:30:18;8.63;;;5.77;;
3054;SDS011;1537;52.018;8.542;2024-01-07T13:33:43;7.33;;;4.00;;
3054;SDS011;1537;52.018;8.542;2024-01-07T13:37:09;6.07;;;3.57;;
3054;SDS011;1537;52.018;8.542;2024-01-07T13:40:33;7.43;;;4.33;;
3054;SDS011;1537;52.018;8.542;2024-01-07T13:43:56;6.60;;;4.73;;
3054;SDS011;1537;52.018;8.542;2024-01-07T13:47:20;7.67;;;4.67;;
3054;SDS011;1537;52.018;8.542;2024-01-07T13:50:45;7.10;;;5.00;;
3054;SDS011;1537;52.018;8.542;2024-01-07T13:54:09;8.10;;;4.63;;
3054;SDS011;1537;52.018;8.542;2024-01-07T13:57:35;8.97;;;4.80;;
3054;SDS011;1537;52.018;8.542;2024-01-07T14:00:59;14.57;;;4.87;;
3054;SDS011;1537;52.018;8.542;2024-01-07T14:04:23;6.93;;;4.27;;
3054;SDS011;1537;52.018;8.542;2024-01-07T14:07:53;6.40;;;4.47;;
3054;SDS011;1537;52.018;8.542;2024-01-07T14:11:16;9.43;;;4.67;;
3054;SDS011;1537;52.018;8.542;2024-01-07T14:14:40;10.83;;;5.77;;
3054;SDS011;1537;52.018;8.542;2024-01-07T14:18:04;7.03;;;5.50;;
3054;SDS011;1537;52.018;8.542;2024-01-07T14:21:28;7.43;;;4.50;;
3054;SDS011;1537;52.018;8.542;2024-01-07T14:24:54;6.20;;;3.47;;
3054;SDS011;1537;52.018;8.542;2024-01-07T14:28:17;14.33;;;5.37;;
3054;SDS011;1537;52.018;8.542;2024-01-07T14:31:41;5.70;;;3.63;;
3054;SDS011;1537;52.018;8.542;2024-01-07T14:35:05;6.53;;;4.40;;
3054;SDS011;1537;52.018;8.542;2024-01-07T14:38:30;5.80;;;3.80;;
3054;SDS011;1537;52.018;8.542;2024-01-07T14:41:55;9.10;;;4.17;;
3054;SDS011;1537;52.018;8.542;2024-01-07T14:45:19;6.30;;;3.87;;
3054;SDS011;1537;52.018;8.542;2024-01-07T14:48:43;6.80;;;4.07;;
3054;SDS011;1537;52.018;8.542;2024-01-07T14:52:07;6.87;;;3.90;;
3054;SDS011;1537;52.018;8.542;2024-01-07T14:55:31;7.17;;;4.10;;
3054;SDS011;1537;52.018;8.542;2024-01-07T14:58:55;8.37;;;4.37;;
3054;SDS011;1537;52.018;8.542;2024-01-07T15:02:19;6.47;;;4.37;;
3054;SDS011;1537;52.018;8.542;2024-01-07T15:05:43;6.00;;;3.40;;
3054;SDS011;1537;52.018;8.542;2024-01-07T15:09:07;9.20;;;3.63;;
3054;SDS011;1537;52.018;8.542;2024-01-07T15:12:31;7.10;;;3.90;;
3054;SDS011;1537;52.018;8.542;2024-01-07T15:16:05;8.30;;;3.80;;
3054;SDS011;1537;52.018;8.542;2024-01-07T15:19:29;6.90;;;3.83;;
3054;SDS011;1537;52.018;8.542;2024-01-07T15:22:53;5.90;;;3.87;;
3054;SDS011;1537;52.018;8.542;2024-01-07T15:26:16;9.30;;;3.50;;
3054;SDS011;1537;52.018;8.542;2024-01-07T15:29:40;7.17;;;3.40;;
3054;SDS011;1537;52.018;8.542;2024-01-07T15:33:05;8.13;;;4.07;;
3054;SDS011;1537;52.018;8.542;2024-01-07T15:36:29;7.60;;;3.67;;
3054;SDS011;1537;52.018;8.542;2024-01-07T15:39:57;7.03;;;3.90;;
3054;SDS011;1537;52.018;8.542;2024-01-07T15:43:21;7.43;;;4.57;;
3054;SDS011;1537;52.018;8.542;2024-01-07T15:46:45;8.03;;;4.60;;
3054;SDS011;1537;52.018;8.542;2024-01-07T15:50:10;6.20;;;3.47;;
3054;SDS011;1537;52.018;8.542;2024-01-07T15:53:35;7.30;;;4.93;;
3054;SDS011;1537;52.018;8.542;2024-01-07T15:56:59;6.60;;;3.83;;
3054;SDS011;1537;52.018;8.542;2024-01-07T16:00:26;7.70;;;4.87;;
3054;SDS011;1537;52.018;8.542;2024-01-07T16:03:50;9.00;;;4.83;;
3054;SDS011;1537;52.018;8.542;2024-01-07T16:07:15;6.03;;;3.80;;
3054;SDS011;1537;52.018;8.542;2024-01-07T16:10:39;7.63;;;4.70;;
3054;SDS011;1537;52.018;8.542;2024-01-07T16:14:03;7.37;;;4.40;;
3054;SDS011;1537;52.018;8.542;2024-01-07T16:17:26;11.10;;;4.23;;
3054;SDS011;1537;52.018;8.542;2024-01-07T16:20:50;8.27;;;4.90;;
3054;SDS011;1537;52.018;8.542;2024-01-07T16:24:15;6.60;;;3.90;;
3054;SDS011;1537;52.018;8.542;2024-01-07T16:27:39;7.83;;;4.67;;
3054;SDS011;1537;52.018;8.542;2024-01-07T16:31:03;6.80;;;4.40;;
3054;SDS011;1537;52.018;8.542;2024-01-07T16:34:27;6.97;;;5.03;;
3054;SDS011;1537;52.018;8.542;2024-01-07T16:37:51;11.13;;;5.50;;
3054;SDS011;1537;52.018;8.542;2024-01-07T16:41:16;7.13;;;4.63;;
3054;SDS011;1537;52.018;8.542;2024-01-07T16:44:39;10.70;;;5.50;;
3054;SDS011;1537;52.018;8.542;2024-01-07T16:48:03;8.90;;;5.60;;
3054;SDS011;1537;52.018;8.542;2024-01-07T16:51:28;7.90;;;4.93;;
3054;SDS011;1537;52.018;8.542;2024-01-07T16:54:53;9.00;;;6.00;;
3054;SDS011;1537;52.018;8.542;2024-01-07T16:58:19;7.70;;;5.43;;
3054;SDS011;1537;52.018;8.542;2024-01-07T17:01:43;7.53;;;5.00;;
3054;SDS011;1537;52.018;8.542;2024-01-07T17:05:06;8.37;;;5.60;;
3054;SDS011;1537;52.018;8.542;2024-01-07T17:08:31;9.97;;;5.20;;
3054;SDS011;1537;52.018;8.542;2024-01-07T17:11:56;8.80;;;5.60;;
3054;SDS011;1537;52.018;8.542;2024-01-07T17:15:21;8.63;;;5.30;;
3054;SDS011;1537;52.018;8.542;2024-01-07T17:18:48;8.07;;;5.20;;
3054;SDS011;1537;52.018;8.542;2024-01-07T17:22:11;8.43;;;5.97;;
3054;SDS011;1537;52.018;8.542;2024-01-07T17:25:36;6.83;;;4.80;;
3054;SDS011;1537;52.018;8.542;2024-01-07T17:29:00;7.70;;;5.10;;
3054;SDS011;1537;52.018;8.542;2024-01-07T17:32:25;9.30;;;5.70;;
3054;SDS011;1537;52.018;8.542;2024-01-07T17:35:49;8.20;;;5.47;;
3054;SDS011;1537;52.018;8.542;2024-01-07T17:39:12;8.23;;;4.97;;
3054;SDS011;1537;52.018;8.542;2024-01-07T17:42:36;8.57;;;5.87;;
3054;SDS011;1537;52.018;8.542;2024-01-07T17:46:00;9.30;;;6.10;;
3054;SDS011;1537;52.018;8.542;2024-01-07T17:49:25;8.83;;;6.23;;
3054;SDS011;1537;52.018;8.542;2024-01-07T17:52:49;9.10;;;6.27;;
3054;SDS011;1537;52.018;8.542;2024-01-07T17:56:17;10.90;;;6.83;;
3054;SDS011;1537;52.018;8.542;2024-01-07T17:59:41;10.90;;;7.17;;
3054;SDS011;1537;52.018;8.542;2024-01-07T18:03:05;11.80;;;7.50;;
3054;SDS011;1537;52.018;8.542;2024-01-07T18:06:30;8.47;;;6.50;;
3054;SDS011;1537;52.018;8.542;2024-01-07T18:09:54;9.57;;;6.97;;
3054;SDS011;1537;52.018;8.542;2024-01-07T18:13:17;11.30;;;7.03;;
3054;SDS011;1537;52.018;8.542;2024-01-07T18:16:41;9.40;;;6.10;;
3054;SDS011;1537;52.018;8.542;2024-01-07T18:20:05;10.87;;;6.77;;
3054;SDS011;1537;52.018;8.542;2024-01-07T18:23:33;9.83;;;6.43;;
3054;SDS011;1537;52.018;8.542;2024-01-07T18:26:57;8.47;;;6.53;;
3054;SDS011;1537;52.018;8.542;2024-01-07T18:30:21;6.73;;;4.90;;
3054;SDS011;1537;52.018;8.542;2024-01-07T18:33:44;9.13;;;6.07;;
3054;SDS011;1537;52.018;8.542;2024-01-07T18:37:09;8.20;;;6.17;;
3054;SDS011;1537;52.018;8.542;2024-01-07T18:40:34;12.27;;;8.10;;
3054;SDS011;1537;52.018;8.542;2024-01-07T18:43:59;15.83;;;6.57;;
3054;SDS011;1537;52.018;8.542;2024-01-07T18:47:22;12.47;;;8.67;;
3054;SDS011;1537;52.018;8.542;2024-01-07T18:50:47;10.10;;;6.43;;
3054;SDS011;1537;52.018;8.542;2024-01-07T18:54:11;9.43;;;7.00;;
3054;SDS011;1537;52.018;8.542;2024-01-07T18:57:37;11.10;;;6.57;;
3054;SDS011;1537;52.018;8.542;2024-01-07T19:01:04;10.07;;;7.30;;
3054;SDS011;1537;52.018;8.542;2024-01-07T19:04:28;9.80;;;6.73;;
3054;SDS011;1537;52.018;8.542;2024-01-07T19:07:53;8.17;;;6.13;;
3054;SDS011;1537;52.018;8.542;2024-01-07T19:11:18;9.50;;;6.10;;
3054;SDS011;1537;52.018;8.542;2024-01-07T19:14:49;13.00;;;6.93;;
3054;SDS011;1537;52.018;8.542;2024-01-07T19:18:13;12.33;;;6.70;;
3054;SDS011;1537;52.018;8.542;2024-01-07T19:21:37;9.70;;;6.53;;
3054;SDS011;1537;52.018;8.542;2024-01-07T19:25:03;12.10;;;8.23;;
3054;SDS011;1537;52.018;8.542;2024-01-07T19:28:27;9.60;;;6.60;;
3054;SDS011;1537;52.018;8.542;2024-01-07T19:31:53;9.80;;;7.33;;
3054;SDS011;1537;52.018;8.542;2024-01-07T19:35:17;8.80;;;6.13;;
3054;SDS011;1537;52.018;8.542;2024-01-07T19:38:41;12.13;;;7.10;;
3054;SDS011;1537;52.018;8.542;2024-01-07T19:42:05;11.07;;;7.33;;
3054;SDS011;1537;52.018;8.542;2024-01-07T19:45:30;11.10;;;7.73;;
3054;SDS011;1537;52.018;8.542;2024-01-07T19:48:58;11.20;;;7.23;;
3054;SDS011;1537;52.018;8.542;2024-01-07T19:52:28;13.67;;;7.13;;
3054;SDS011;1537;52.018;8.542;2024-01-07T19:55:55;7.60;;;5.03;;
3054;SDS011;1537;52.018;8.542;2024-01-07T19:59:24;9.10;;;5.60;;
3054;SDS011;1537;52.018;8.542;2024-01-07T20:02:49;8.97;;;5.57;;
3054;SDS011;1537;52.018;8.542;2024-01-07T20:06:18;11.57;;;7.17;;
3054;SDS011;1537;52.018;8.542;2024-01-07T20:09:47;10.60;;;6.83;;
3054;SDS011;1537;52.018;8.542;2024-01-07T20:13:13;10.40;;;6.37;;
3054;SDS011;1537;52.018;8.542;2024-01-07T20:16:37;8.47;;;5.30;;
3054;SDS011;1537;52.018;8.542;2024-01-07T20:20:03;11.80;;;7.60;;
3054;SDS011;1537;52.018;8.542;2024-01-07T20:23:33;11.23;;;7.13;;
3054;SDS011;1537;52.018;8.542;2024-01-07T20:26:59;11.27;;;7.43;;
3054;SDS011;1537;52.018;8.542;2024-01-07T20:30:28;9.72;;;7.07;;
3054;SDS011;1537;52.018;8.542;2024-01-07T20:33:54;13.20;;;7.30;;
3054;SDS011;1537;52.018;8.542;2024-01-07T20:37:23;10.70;;;6.73;;
3054;SDS011;1537;52.018;8.542;2024-01-07T20:40:52;9.80;;;6.97;;
3054;SDS011;1537;52.018;8.542;2024-01-07T20:44:18;12.67;;;7.20;;
3054;SDS011;1537;52.018;8.542;2024-01-07T20:47:42;8.57;;;6.07;;
3054;SDS011;1537;52.018;8.542;2024-01-07T20:51:08;9.07;;;5.77;;
3054;SDS011;1537;52.018;8.542;2024-01-07T20:54:37;9.63;;;5.97;;
3054;SDS011;1537;52.018;8.542;2024-01-07T20:58:07;7.67;;;4.50;;
3054;SDS011;1537;52.018;8.542;2024-01-07T21:01:31;12.33;;;6.30;;
3054;SDS011;1537;52.018;8.542;2024-01-07T21:04:56;9.47;;;5.87;;